Rockview, Missouri
Current Conditions -  °F | °C
As of 8:53 PM on Wednesday 26 Nov 2014 (Local Time) from KCGI Reporting Station
Overcast Overcast  
Wind Chill: 32°   Ceiling: 4100
Heat Index: 36°   Visibility: 9mi
Dew Point: 35°   Wind: 5mph
Humidity: 97%   Direction: 260°W
Pressure: 30.09"   Gusts: NA
Location:  37.1651°N, 89.623°W
Report Text: KCGI 270253Z AUTO 26004KT 9SM SCT030 OVC041 02/02 A3009 RMK AO2 RAB05E11UPB11E20 SLP193 P0000 60000 T00220017 51008 TSNO
Loading
Personal Weather Stations






























Interactive Weather Map New forecast layout! Learn more

10-Day Weather Forecast

Advertisements
Track Severe Weather on mobile